sensor_id;sensor_type;location;lat;lon;timestamp;P1;durP1;ratioP1;P2;durP2;ratioP2
79533;SDS011;68982;52.160;6.736;2024-01-11T00:01:47;25.83;;;11.35;;
79533;SDS011;68982;52.160;6.736;2024-01-11T00:04:12;19.25;;;9.35;;
79533;SDS011;68982;52.160;6.736;2024-01-11T00:06:42;22.15;;;10.98;;
79533;SDS011;68982;52.160;6.736;2024-01-11T00:09:08;27.45;;;10.95;;
79533;SDS011;68982;52.160;6.736;2024-01-11T00:11:33;23.97;;;10.73;;
79533;SDS011;68982;52.160;6.736;2024-01-11T00:13:59;20.23;;;9.63;;
79533;SDS011;68982;52.160;6.736;2024-01-11T00:16:24;22.47;;;9.87;;
79533;SDS011;68982;52.160;6.736;2024-01-11T00:18:49;20.57;;;9.50;;
79533;SDS011;68982;52.160;6.736;2024-01-11T00:21:15;22.03;;;9.90;;
79533;SDS011;68982;52.160;6.736;2024-01-11T00:23:40;23.00;;;9.50;;
79533;SDS011;68982;52.160;6.736;2024-01-11T00:26:05;21.33;;;9.65;;
79533;SDS011;68982;52.160;6.736;2024-01-11T00:28:31;24.80;;;10.60;;
79533;SDS011;68982;52.160;6.736;2024-01-11T00:30:57;23.63;;;9.73;;
79533;SDS011;68982;52.160;6.736;2024-01-11T00:33:22;24.92;;;9.77;;
79533;SDS011;68982;52.160;6.736;2024-01-11T00:35:47;24.47;;;11.10;;
79533;SDS011;68982;52.160;6.736;2024-01-11T00:38:13;22.10;;;10.50;;
79533;SDS011;68982;52.160;6.736;2024-01-11T00:40:38;23.23;;;10.77;;
79533;SDS011;68982;52.160;6.736;2024-01-11T00:43:04;22.00;;;9.70;;
79533;SDS011;68982;52.160;6.736;2024-01-11T00:45:29;26.42;;;11.25;;
79533;SDS011;68982;52.160;6.736;2024-01-11T00:47:54;21.63;;;10.33;;
79533;SDS011;68982;52.160;6.736;2024-01-11T00:50:20;21.90;;;9.13;;
79533;SDS011;68982;52.160;6.736;2024-01-11T00:52:45;22.33;;;9.90;;
79533;SDS011;68982;52.160;6.736;2024-01-11T00:55:10;20.90;;;9.60;;
79533;SDS011;68982;52.160;6.736;2024-01-11T00:57:36;22.20;;;10.70;;
79533;SDS011;68982;52.160;6.736;2024-01-11T01:00:01;20.00;;;9.57;;
79533;SDS011;68982;52.160;6.736;2024-01-11T01:02:27;18.63;;;9.18;;
79533;SDS011;68982;52.160;6.736;2024-01-11T01:04:52;24.50;;;9.60;;
79533;SDS011;68982;52.160;6.736;2024-01-11T01:07:17;18.47;;;9.57;;
79533;SDS011;68982;52.160;6.736;2024-01-11T01:09:43;19.48;;;10.52;;
79533;SDS011;68982;52.160;6.736;2024-01-11T01:12:08;19.77;;;10.13;;
79533;SDS011;68982;52.160;6.736;2024-01-11T01:14:34;21.15;;;10.27;;
79533;SDS011;68982;52.160;6.736;2024-01-11T01:16:59;25.42;;;10.05;;
79533;SDS011;68982;52.160;6.736;2024-01-11T01:19:25;17.70;;;8.30;;
79533;SDS011;68982;52.160;6.736;2024-01-11T01:21:50;18.38;;;8.63;;
79533;SDS011;68982;52.160;6.736;2024-01-11T01:24:16;17.50;;;8.67;;
79533;SDS011;68982;52.160;6.736;2024-01-11T01:26:41;19.47;;;8.17;;
79533;SDS011;68982;52.160;6.736;2024-01-11T01:29:06;17.80;;;7.40;;
79533;SDS011;68982;52.160;6.736;2024-01-11T01:31:32;22.20;;;8.33;;
79533;SDS011;68982;52.160;6.736;2024-01-11T01:34:02;15.80;;;8.20;;
79533;SDS011;68982;52.160;6.736;2024-01-11T01:36:28;19.80;;;7.93;;
79533;SDS011;68982;52.160;6.736;2024-01-11T01:38:53;18.53;;;7.73;;
79533;SDS011;68982;52.160;6.736;2024-01-11T01:41:19;15.67;;;8.03;;
79533;SDS011;68982;52.160;6.736;2024-01-11T01:43:44;16.77;;;7.73;;
79533;SDS011;68982;52.160;6.736;2024-01-11T01:46:09;20.93;;;7.67;;
79533;SDS011;68982;52.160;6.736;2024-01-11T01:48:35;19.02;;;8.95;;
79533;SDS011;68982;52.160;6.736;2024-01-11T01:51:02;16.60;;;7.88;;
79533;SDS011;68982;52.160;6.736;2024-01-11T01:53:28;16.27;;;7.53;;
79533;SDS011;68982;52.160;6.736;2024-01-11T01:55:54;19.27;;;9.02;;
79533;SDS011;68982;52.160;6.736;2024-01-11T01:58:20;20.67;;;7.68;;
79533;SDS011;68982;52.160;6.736;2024-01-11T02:00:47;17.88;;;7.45;;
79533;SDS011;68982;52.160;6.736;2024-01-11T02:03:15;14.68;;;6.97;;
79533;SDS011;68982;52.160;6.736;2024-01-11T02:05:41;16.33;;;8.07;;
79533;SDS011;68982;52.160;6.736;2024-01-11T02:08:07;19.55;;;7.50;;
79533;SDS011;68982;52.160;6.736;2024-01-11T02:10:34;16.42;;;8.25;;
79533;SDS011;68982;52.160;6.736;2024-01-11T02:13:00;16.77;;;7.47;;
79533;SDS011;68982;52.160;6.736;2024-01-11T02:15:26;16.55;;;7.55;;
79533;SDS011;68982;52.160;6.736;2024-01-11T02:17:51;17.03;;;7.37;;
79533;SDS011;68982;52.160;6.736;2024-01-11T02:20:16;15.35;;;7.50;;
79533;SDS011;68982;52.160;6.736;2024-01-11T02:22:42;16.70;;;8.40;;
79533;SDS011;68982;52.160;6.736;2024-01-11T02:25:12;20.98;;;8.48;;
79533;SDS011;68982;52.160;6.736;2024-01-11T02:27:49;20.10;;;8.23;;
79533;SDS011;68982;52.160;6.736;2024-01-11T02:30:15;18.30;;;8.18;;
79533;SDS011;68982;52.160;6.736;2024-01-11T02:32:45;17.63;;;8.00;;
79533;SDS011;68982;52.160;6.736;2024-01-11T02:35:13;15.07;;;8.65;;
79533;SDS011;68982;52.160;6.736;2024-01-11T02:37:39;17.80;;;8.27;;
79533;SDS011;68982;52.160;6.736;2024-01-11T02:40:06;18.77;;;7.50;;
79533;SDS011;68982;52.160;6.736;2024-01-11T02:42:33;16.75;;;8.25;;
79533;SDS011;68982;52.160;6.736;2024-01-11T02:44:59;19.95;;;8.30;;
79533;SDS011;68982;52.160;6.736;2024-01-11T02:47:24;19.80;;;8.23;;
79533;SDS011;68982;52.160;6.736;2024-01-11T02:49:49;16.02;;;7.25;;
79533;SDS011;68982;52.160;6.736;2024-01-11T02:52:15;16.57;;;7.93;;
79533;SDS011;68982;52.160;6.736;2024-01-11T02:54:40;19.73;;;8.10;;
79533;SDS011;68982;52.160;6.736;2024-01-11T02:57:05;16.93;;;7.53;;
79533;SDS011;68982;52.160;6.736;2024-01-11T02:59:31;17.87;;;7.90;;
79533;SDS011;68982;52.160;6.736;2024-01-11T03:01:56;16.55;;;7.88;;
79533;SDS011;68982;52.160;6.736;2024-01-11T03:04:21;18.65;;;7.38;;
79533;SDS011;68982;52.160;6.736;2024-01-11T03:06:47;20.65;;;7.70;;
79533;SDS011;68982;52.160;6.736;2024-01-11T03:09:12;17.75;;;8.73;;
79533;SDS011;68982;52.160;6.736;2024-01-11T03:11:37;16.77;;;7.00;;
79533;SDS011;68982;52.160;6.736;2024-01-11T03:14:03;18.10;;;8.40;;
79533;SDS011;68982;52.160;6.736;2024-01-11T03:16:29;18.13;;;7.95;;
79533;SDS011;68982;52.160;6.736;2024-01-11T03:18:54;16.73;;;7.82;;
79533;SDS011;68982;52.160;6.736;2024-01-11T03:21:20;18.93;;;8.37;;
79533;SDS011;68982;52.160;6.736;2024-01-11T03:23:45;13.90;;;7.72;;
79533;SDS011;68982;52.160;6.736;2024-01-11T03:26:17;17.77;;;7.15;;
79533;SDS011;68982;52.160;6.736;2024-01-11T03:28:43;17.13;;;7.97;;
79533;SDS011;68982;52.160;6.736;2024-01-11T03:31:09;17.23;;;7.57;;
79533;SDS011;68982;52.160;6.736;2024-01-11T03:33:34;19.33;;;8.13;;
79533;SDS011;68982;52.160;6.736;2024-01-11T03:36:05;22.13;;;7.93;;
79533;SDS011;68982;52.160;6.736;2024-01-11T03:38:31;16.25;;;8.18;;
79533;SDS011;68982;52.160;6.736;2024-01-11T03:40:57;17.00;;;7.67;;
79533;SDS011;68982;52.160;6.736;2024-01-11T03:43:22;17.77;;;8.63;;
79533;SDS011;68982;52.160;6.736;2024-01-11T03:45:47;18.03;;;8.07;;
79533;SDS011;68982;52.160;6.736;2024-01-11T03:48:12;16.83;;;7.87;;
79533;SDS011;68982;52.160;6.736;2024-01-11T03:50:38;17.33;;;7.97;;
79533;SDS011;68982;52.160;6.736;2024-01-11T03:53:03;15.53;;;8.30;;
79533;SDS011;68982;52.160;6.736;2024-01-11T03:55:29;17.50;;;8.48;;
79533;SDS011;68982;52.160;6.736;2024-01-11T03:57:54;20.10;;;8.02;;
79533;SDS011;68982;52.160;6.736;2024-01-11T04:00:20;19.35;;;8.30;;
79533;SDS011;68982;52.160;6.736;2024-01-11T04:02:45;21.15;;;8.77;;
79533;SDS011;68982;52.160;6.736;2024-01-11T04:05:11;15.48;;;7.80;;
79533;SDS011;68982;52.160;6.736;2024-01-11T04:07:36;20.00;;;8.83;;
79533;SDS011;68982;52.160;6.736;2024-01-11T04:10:01;18.30;;;7.70;;
79533;SDS011;68982;52.160;6.736;2024-01-11T04:12:27;16.75;;;8.20;;
79533;SDS011;68982;52.160;6.736;2024-01-11T04:14:52;17.63;;;8.50;;
79533;SDS011;68982;52.160;6.736;2024-01-11T04:17:17;16.77;;;7.80;;
79533;SDS011;68982;52.160;6.736;2024-01-11T04:19:43;19.55;;;8.25;;
79533;SDS011;68982;52.160;6.736;2024-01-11T04:22:08;15.80;;;7.50;;
79533;SDS011;68982;52.160;6.736;2024-01-11T04:24:33;17.30;;;7.88;;
79533;SDS011;68982;52.160;6.736;2024-01-11T04:26:59;15.70;;;8.27;;
79533;SDS011;68982;52.160;6.736;2024-01-11T04:29:24;19.23;;;7.90;;
79533;SDS011;68982;52.160;6.736;2024-01-11T04:31:49;18.77;;;8.68;;
79533;SDS011;68982;52.160;6.736;2024-01-11T04:34:15;16.65;;;8.10;;
79533;SDS011;68982;52.160;6.736;2024-01-11T04:36:40;16.40;;;7.53;;
79533;SDS011;68982;52.160;6.736;2024-01-11T04:39:05;16.60;;;7.90;;
79533;SDS011;68982;52.160;6.736;2024-01-11T04:41:32;16.80;;;7.43;;
79533;SDS011;68982;52.160;6.736;2024-01-11T04:44:00;16.45;;;7.75;;
79533;SDS011;68982;52.160;6.736;2024-01-11T04:46:25;14.50;;;7.90;;
79533;SDS011;68982;52.160;6.736;2024-01-11T04:48:50;19.57;;;7.80;;
79533;SDS011;68982;52.160;6.736;2024-01-11T04:51:17;17.90;;;9.02;;
79533;SDS011;68982;52.160;6.736;2024-01-11T04:53:43;18.33;;;8.10;;
79533;SDS011;68982;52.160;6.736;2024-01-11T04:56:10;16.65;;;9.05;;
79533;SDS011;68982;52.160;6.736;2024-01-11T04:58:38;17.58;;;7.70;;
79533;SDS011;68982;52.160;6.736;2024-01-11T05:01:05;23.70;;;8.63;;
79533;SDS011;68982;52.160;6.736;2024-01-11T05:03:30;17.08;;;7.38;;
79533;SDS011;68982;52.160;6.736;2024-01-11T05:05:57;17.48;;;8.52;;
79533;SDS011;68982;52.160;6.736;2024-01-11T05:08:23;19.38;;;8.70;;
79533;SDS011;68982;52.160;6.736;2024-01-11T05:10:48;17.95;;;7.78;;
79533;SDS011;68982;52.160;6.736;2024-01-11T05:13:14;18.17;;;7.65;;
79533;SDS011;68982;52.160;6.736;2024-01-11T05:15:39;18.45;;;8.25;;
79533;SDS011;68982;52.160;6.736;2024-01-11T05:18:05;17.40;;;8.02;;
79533;SDS011;68982;52.160;6.736;2024-01-11T05:20:30;16.70;;;7.68;;
79533;SDS011;68982;52.160;6.736;2024-01-11T05:22:55;18.10;;;8.27;;
79533;SDS011;68982;52.160;6.736;2024-01-11T05:25:21;16.53;;;7.33;;
79533;SDS011;68982;52.160;6.736;2024-01-11T05:27:46;15.83;;;8.03;;
79533;SDS011;68982;52.160;6.736;2024-01-11T05:30:11;17.37;;;8.07;;
79533;SDS011;68982;52.160;6.736;2024-01-11T05:32:37;17.90;;;8.00;;
79533;SDS011;68982;52.160;6.736;2024-01-11T05:35:03;16.75;;;7.22;;
79533;SDS011;68982;52.160;6.736;2024-01-11T05:37:28;13.57;;;6.70;;
79533;SDS011;68982;52.160;6.736;2024-01-11T05:39:54;17.17;;;7.57;;
79533;SDS011;68982;52.160;6.736;2024-01-11T05:42:22;16.48;;;7.85;;
79533;SDS011;68982;52.160;6.736;2024-01-11T05:44:47;16.88;;;8.40;;
79533;SDS011;68982;52.160;6.736;2024-01-11T05:47:13;17.43;;;8.13;;
79533;SDS011;68982;52.160;6.736;2024-01-11T05:49:38;13.93;;;7.63;;
79533;SDS011;68982;52.160;6.736;2024-01-11T05:52:03;13.63;;;7.50;;
79533;SDS011;68982;52.160;6.736;2024-01-11T05:54:29;20.80;;;8.65;;
79533;SDS011;68982;52.160;6.736;2024-01-11T05:56:54;16.23;;;8.00;;
79533;SDS011;68982;52.160;6.736;2024-01-11T05:59:24;15.75;;;7.47;;
79533;SDS011;68982;52.160;6.736;2024-01-11T06:01:49;17.65;;;8.80;;
79533;SDS011;68982;52.160;6.736;2024-01-11T06:04:15;15.40;;;7.80;;
79533;SDS011;68982;52.160;6.736;2024-01-11T06:06:41;18.60;;;8.38;;
79533;SDS011;68982;52.160;6.736;2024-01-11T06:09:06;19.55;;;9.60;;
79533;SDS011;68982;52.160;6.736;2024-01-11T06:11:32;16.98;;;8.20;;
79533;SDS011;68982;52.160;6.736;2024-01-11T06:13:58;19.48;;;8.93;;
79533;SDS011;68982;52.160;6.736;2024-01-11T06:16:23;19.30;;;9.15;;
79533;SDS011;68982;52.160;6.736;2024-01-11T06:18:49;17.47;;;8.77;;
79533;SDS011;68982;52.160;6.736;2024-01-11T06:21:15;19.23;;;9.10;;
79533;SDS011;68982;52.160;6.736;2024-01-11T06:23:42;17.60;;;9.10;;
79533;SDS011;68982;52.160;6.736;2024-01-11T06:26:08;16.38;;;7.97;;
79533;SDS011;68982;52.160;6.736;2024-01-11T06:28:33;18.58;;;8.10;;
79533;SDS011;68982;52.160;6.736;2024-01-11T06:30:59;19.13;;;9.00;;
79533;SDS011;68982;52.160;6.736;2024-01-11T06:33:24;25.15;;;10.43;;
79533;SDS011;68982;52.160;6.736;2024-01-11T06:35:49;16.65;;;8.00;;
79533;SDS011;68982;52.160;6.736;2024-01-11T06:38:15;18.25;;;8.65;;
79533;SDS011;68982;52.160;6.736;2024-01-11T06:40:41;17.48;;;7.97;;
79533;SDS011;68982;52.160;6.736;2024-01-11T06:43:09;19.88;;;8.77;;
79533;SDS011;68982;52.160;6.736;2024-01-11T06:45:34;22.27;;;8.65;;
79533;SDS011;68982;52.160;6.736;2024-01-11T06:48:00;24.23;;;9.93;;
79533;SDS011;68982;52.160;6.736;2024-01-11T06:50:25;19.42;;;8.88;;
79533;SDS011;68982;52.160;6.736;2024-01-11T06:52:51;21.80;;;9.03;;
79533;SDS011;68982;52.160;6.736;2024-01-11T06:55:16;19.43;;;9.57;;
79533;SDS011;68982;52.160;6.736;2024-01-11T06:57:41;18.23;;;10.00;;
79533;SDS011;68982;52.160;6.736;2024-01-11T07:00:07;19.00;;;10.03;;
79533;SDS011;68982;52.160;6.736;2024-01-11T07:02:32;23.60;;;10.80;;
79533;SDS011;68982;52.160;6.736;2024-01-11T07:04:58;31.00;;;10.90;;
79533;SDS011;68982;52.160;6.736;2024-01-11T07:07:23;23.00;;;10.90;;
79533;SDS011;68982;52.160;6.736;2024-01-11T07:09:48;24.27;;;11.05;;
79533;SDS011;68982;52.160;6.736;2024-01-11T07:12:14;19.80;;;10.48;;
79533;SDS011;68982;52.160;6.736;2024-01-11T07:14:39;23.90;;;9.75;;
79533;SDS011;68982;52.160;6.736;2024-01-11T07:17:04;21.43;;;9.87;;
79533;SDS011;68982;52.160;6.736;2024-01-11T07:19:30;19.75;;;10.15;;
79533;SDS011;68982;52.160;6.736;2024-01-11T07:21:56;20.70;;;9.38;;
79533;SDS011;68982;52.160;6.736;2024-01-11T07:24:21;20.55;;;9.20;;
79533;SDS011;68982;52.160;6.736;2024-01-11T07:26:46;21.77;;;9.90;;
79533;SDS011;68982;52.160;6.736;2024-01-11T07:29:12;24.88;;;10.80;;
79533;SDS011;68982;52.160;6.736;2024-01-11T07:31:37;23.45;;;10.30;;
79533;SDS011;68982;52.160;6.736;2024-01-11T07:34:03;32.58;;;13.15;;
79533;SDS011;68982;52.160;6.736;2024-01-11T07:36:28;32.83;;;14.63;;
79533;SDS011;68982;52.160;6.736;2024-01-11T07:38:53;31.05;;;13.88;;
79533;SDS011;68982;52.160;6.736;2024-01-11T07:41:21;31.73;;;13.13;;
79533;SDS011;68982;52.160;6.736;2024-01-11T07:43:46;24.48;;;11.57;;
79533;SDS011;68982;52.160;6.736;2024-01-11T07:46:12;26.27;;;11.80;;
79533;SDS011;68982;52.160;6.736;2024-01-11T07:48:37;25.67;;;11.13;;
79533;SDS011;68982;52.160;6.736;2024-01-11T07:51:03;23.80;;;11.50;;
79533;SDS011;68982;52.160;6.736;2024-01-11T07:53:29;21.77;;;11.25;;
79533;SDS011;68982;52.160;6.736;2024-01-11T07:55:56;23.83;;;11.35;;
79533;SDS011;68982;52.160;6.736;2024-01-11T07:58:22;24.83;;;11.38;;
79533;SDS011;68982;52.160;6.736;2024-01-11T08:00:47;55.87;;;21.43;;
79533;SDS011;68982;52.160;6.736;2024-01-11T08:03:13;63.50;;;24.48;;
79533;SDS011;68982;52.160;6.736;2024-01-11T08:05:39;58.47;;;23.20;;
79533;SDS011;68982;52.160;6.736;2024-01-11T08:08:04;92.77;;;28.47;;
79533;SDS011;68982;52.160;6.736;2024-01-11T08:10:30;107.95;;;33.85;;
79533;SDS011;68982;52.160;6.736;2024-01-11T08:12:58;38.97;;;15.05;;
79533;SDS011;68982;52.160;6.736;2024-01-11T08:15:25;27.10;;;12.68;;
79533;SDS011;68982;52.160;6.736;2024-01-11T08:17:50;24.23;;;11.82;;
79533;SDS011;68982;52.160;6.736;2024-01-11T08:20:15;25.88;;;10.93;;
79533;SDS011;68982;52.160;6.736;2024-01-11T08:22:41;21.67;;;10.80;;
79533;SDS011;68982;52.160;6.736;2024-01-11T08:25:08;26.02;;;13.70;;
79533;SDS011;68982;52.160;6.736;2024-01-11T08:27:36;21.83;;;10.20;;
79533;SDS011;68982;52.160;6.736;2024-01-11T08:30:02;21.75;;;10.98;;
79533;SDS011;68982;52.160;6.736;2024-01-11T08:32:29;19.80;;;10.68;;
79533;SDS011;68982;52.160;6.736;2024-01-11T08:34:56;19.85;;;11.43;;
79533;SDS011;68982;52.160;6.736;2024-01-11T08:37:22;38.00;;;17.35;;
79533;SDS011;68982;52.160;6.736;2024-01-11T08:39:48;32.78;;;14.52;;
79533;SDS011;68982;52.160;6.736;2024-01-11T08:42:14;27.80;;;11.77;;
79533;SDS011;68982;52.160;6.736;2024-01-11T08:44:43;23.90;;;11.80;;
79533;SDS011;68982;52.160;6.736;2024-01-11T08:47:08;25.92;;;12.25;;
79533;SDS011;68982;52.160;6.736;2024-01-11T08:49:36;24.90;;;13.48;;
79533;SDS011;68982;52.160;6.736;2024-01-11T08:52:01;28.52;;;12.35;;
79533;SDS011;68982;52.160;6.736;2024-01-11T08:54:27;26.10;;;11.82;;
79533;SDS011;68982;52.160;6.736;2024-01-11T08:56:53;27.53;;;13.80;;
79533;SDS011;68982;52.160;6.736;2024-01-11T08:59:18;30.17;;;12.97;;
79533;SDS011;68982;52.160;6.736;2024-01-11T09:01:43;27.38;;;12.00;;
79533;SDS011;68982;52.160;6.736;2024-01-11T09:04:09;35.47;;;14.43;;
79533;SDS011;68982;52.160;6.736;2024-01-11T09:06:34;34.13;;;14.17;;
79533;SDS011;68982;52.160;6.736;2024-01-11T09:08:59;30.67;;;13.70;;
79533;SDS011;68982;52.160;6.736;2024-01-11T09:11:25;32.83;;;15.60;;
79533;SDS011;68982;52.160;6.736;2024-01-11T09:13:50;33.33;;;16.60;;
79533;SDS011;68982;52.160;6.736;2024-01-11T09:16:16;24.92;;;12.82;;
79533;SDS011;68982;52.160;6.736;2024-01-11T09:18:42;25.13;;;11.25;;
79533;SDS011;68982;52.160;6.736;2024-01-11T09:21:08;20.83;;;8.68;;
79533;SDS011;68982;52.160;6.736;2024-01-11T09:23:34;22.90;;;10.47;;
79533;SDS011;68982;52.160;6.736;2024-01-11T09:26:00;25.27;;;10.88;;
79533;SDS011;68982;52.160;6.736;2024-01-11T09:28:25;26.47;;;10.30;;
79533;SDS011;68982;52.160;6.736;2024-01-11T09:30:50;24.63;;;10.77;;
79533;SDS011;68982;52.160;6.736;2024-01-11T09:33:15;26.53;;;11.77;;
79533;SDS011;68982;52.160;6.736;2024-01-11T09:35:41;22.88;;;11.10;;
79533;SDS011;68982;52.160;6.736;2024-01-11T09:38:06;33.87;;;12.33;;
79533;SDS011;68982;52.160;6.736;2024-01-11T09:40:32;30.03;;;10.83;;
79533;SDS011;68982;52.160;6.736;2024-01-11T09:42:57;24.52;;;10.93;;
79533;SDS011;68982;52.160;6.736;2024-01-11T09:45:23;25.13;;;11.73;;
79533;SDS011;68982;52.160;6.736;2024-01-11T09:47:50;34.30;;;12.18;;
79533;SDS011;68982;52.160;6.736;2024-01-11T09:50:17;32.90;;;12.80;;
79533;SDS011;68982;52.160;6.736;2024-01-11T09:52:46;26.27;;;11.55;;
79533;SDS011;68982;52.160;6.736;2024-01-11T09:55:13;31.15;;;10.82;;
79533;SDS011;68982;52.160;6.736;2024-01-11T09:57:40;31.98;;;11.25;;
79533;SDS011;68982;52.160;6.736;2024-01-11T10:00:09;30.13;;;10.30;;
79533;SDS011;68982;52.160;6.736;2024-01-11T10:02:36;23.55;;;10.25;;
79533;SDS011;68982;52.160;6.736;2024-01-11T10:05:02;23.90;;;10.40;;
79533;SDS011;68982;52.160;6.736;2024-01-11T10:07:28;20.73;;;9.43;;
79533;SDS011;68982;52.160;6.736;2024-01-11T10:09:55;29.33;;;10.57;;
79533;SDS011;68982;52.160;6.736;2024-01-11T10:12:23;26.30;;;10.38;;
79533;SDS011;68982;52.160;6.736;2024-01-11T10:14:50;27.27;;;10.70;;
79533;SDS011;68982;52.160;6.736;2024-01-11T10:17:16;24.42;;;9.77;;
79533;SDS011;68982;52.160;6.736;2024-01-11T10:19:42;26.10;;;9.90;;
79533;SDS011;68982;52.160;6.736;2024-01-11T10:22:07;24.57;;;9.63;;
79533;SDS011;68982;52.160;6.736;2024-01-11T10:24:33;25.98;;;10.50;;
79533;SDS011;68982;52.160;6.736;2024-01-11T10:27:00;23.65;;;9.95;;
79533;SDS011;68982;52.160;6.736;2024-01-11T10:29:32;41.83;;;13.73;;
79533;SDS011;68982;52.160;6.736;2024-01-11T10:31:58;51.03;;;14.13;;
79533;SDS011;68982;52.160;6.736;2024-01-11T10:34:24;74.53;;;17.92;;
79533;SDS011;68982;52.160;6.736;2024-01-11T10:36:50;77.18;;;19.73;;
79533;SDS011;68982;52.160;6.736;2024-01-11T10:39:16;52.03;;;15.18;;
79533;SDS011;68982;52.160;6.736;2024-01-11T10:41:42;51.65;;;18.17;;
79533;SDS011;68982;52.160;6.736;2024-01-11T10:44:19;44.40;;;15.57;;
79533;SDS011;68982;52.160;6.736;2024-01-11T10:46:49;50.60;;;15.52;;
79533;SDS011;68982;52.160;6.736;2024-01-11T10:49:16;45.67;;;15.82;;
79533;SDS011;68982;52.160;6.736;2024-01-11T10:51:43;49.20;;;16.75;;
79533;SDS011;68982;52.160;6.736;2024-01-11T10:54:14;39.67;;;15.57;;
79533;SDS011;68982;52.160;6.736;2024-01-11T10:56:40;42.42;;;16.17;;
79533;SDS011;68982;52.160;6.736;2024-01-11T10:59:09;43.50;;;16.50;;
79533;SDS011;68982;52.160;6.736;2024-01-11T11:01:36;47.10;;;16.05;;
79533;SDS011;68982;52.160;6.736;2024-01-11T11:04:04;50.53;;;15.98;;
79533;SDS011;68982;52.160;6.736;2024-01-11T11:06:31;48.65;;;18.40;;
79533;SDS011;68982;52.160;6.736;2024-01-11T11:08:57;57.05;;;18.45;;
79533;SDS011;68982;52.160;6.736;2024-01-11T11:11:23;47.00;;;17.35;;
79533;SDS011;68982;52.160;6.736;2024-01-11T11:13:49;51.03;;;16.88;;
79533;SDS011;68982;52.160;6.736;2024-01-11T11:16:16;44.30;;;17.15;;
79533;SDS011;68982;52.160;6.736;2024-01-11T11:18:41;55.00;;;18.23;;
79533;SDS011;68982;52.160;6.736;2024-01-11T11:21:10;45.97;;;16.20;;
79533;SDS011;68982;52.160;6.736;2024-01-11T11:23:36;41.63;;;15.52;;
79533;SDS011;68982;52.160;6.736;2024-01-11T11:26:02;35.60;;;11.88;;
79533;SDS011;68982;52.160;6.736;2024-01-11T11:28:32;31.77;;;11.38;;
79533;SDS011;68982;52.160;6.736;2024-01-11T11:30:59;35.58;;;12.18;;
79533;SDS011;68982;52.160;6.736;2024-01-11T11:33:27;26.08;;;10.75;;
79533;SDS011;68982;52.160;6.736;2024-01-11T11:35:54;24.55;;;10.45;;
79533;SDS011;68982;52.160;6.736;2024-01-11T11:38:23;23.27;;;8.00;;
79533;SDS011;68982;52.160;6.736;2024-01-11T11:40:52;24.65;;;7.72;;
79533;SDS011;68982;52.160;6.736;2024-01-11T11:43:22;18.90;;;7.88;;
79533;SDS011;68982;52.160;6.736;2024-01-11T11:45:48;22.85;;;9.30;;
79533;SDS011;68982;52.160;6.736;2024-01-11T11:51:07;20.63;;;7.22;;
79533;SDS011;68982;52.160;6.736;2024-01-11T11:53:37;24.02;;;7.47;;
79533;SDS011;68982;52.160;6.736;2024-01-11T11:56:03;20.52;;;7.57;;
79533;SDS011;68982;52.160;6.736;2024-01-11T11:58:29;16.67;;;7.57;;
79533;SDS011;68982;52.160;6.736;2024-01-11T12:00:56;18.98;;;6.63;;
79533;SDS011;68982;52.160;6.736;2024-01-11T12:03:28;16.60;;;6.40;;
79533;SDS011;68982;52.160;6.736;2024-01-11T12:05:55;19.17;;;7.50;;
79533;SDS011;68982;52.160;6.736;2024-01-11T12:08:21;35.60;;;10.70;;
79533;SDS011;68982;52.160;6.736;2024-01-11T12:10:47;22.15;;;7.70;;
79533;SDS011;68982;52.160;6.736;2024-01-11T12:13:12;22.55;;;8.13;;
79533;SDS011;68982;52.160;6.736;2024-01-11T12:15:38;24.65;;;9.55;;
79533;SDS011;68982;52.160;6.736;2024-01-11T12:18:03;26.63;;;10.43;;
79533;SDS011;68982;52.160;6.736;2024-01-11T12:20:29;43.25;;;17.30;;
79533;SDS011;68982;52.160;6.736;2024-01-11T12:22:54;46.63;;;16.93;;
79533;SDS011;68982;52.160;6.736;2024-01-11T12:25:20;19.67;;;8.27;;
79533;SDS011;68982;52.160;6.736;2024-01-11T12:27:46;19.38;;;7.43;;
79533;SDS011;68982;52.160;6.736;2024-01-11T12:30:12;19.58;;;7.82;;
79533;SDS011;68982;52.160;6.736;2024-01-11T12:32:41;22.08;;;8.25;;
79533;SDS011;68982;52.160;6.736;2024-01-11T12:35:07;15.88;;;7.85;;
79533;SDS011;68982;52.160;6.736;2024-01-11T12:37:33;17.33;;;7.00;;
79533;SDS011;68982;52.160;6.736;2024-01-11T12:39:58;18.63;;;7.67;;
79533;SDS011;68982;52.160;6.736;2024-01-11T12:42:27;17.58;;;7.07;;
79533;SDS011;68982;52.160;6.736;2024-01-11T12:44:52;20.08;;;7.88;;
79533;SDS011;68982;52.160;6.736;2024-01-11T12:47:18;18.75;;;6.75;;
79533;SDS011;68982;52.160;6.736;2024-01-11T12:49:43;18.40;;;8.05;;
79533;SDS011;68982;52.160;6.736;2024-01-11T12:52:20;20.00;;;6.97;;
79533;SDS011;68982;52.160;6.736;2024-01-11T12:54:45;20.52;;;7.32;;
79533;SDS011;68982;52.160;6.736;2024-01-11T12:57:11;18.58;;;8.43;;
79533;SDS011;68982;52.160;6.736;2024-01-11T13:02:11;18.50;;;7.32;;
79533;SDS011;68982;52.160;6.736;2024-01-11T13:04:40;19.88;;;7.72;;
79533;SDS011;68982;52.160;6.736;2024-01-11T13:07:06;20.27;;;7.03;;
79533;SDS011;68982;52.160;6.736;2024-01-11T13:09:32;20.35;;;8.07;;
79533;SDS011;68982;52.160;6.736;2024-01-11T13:11:58;18.65;;;7.38;;
79533;SDS011;68982;52.160;6.736;2024-01-11T13:14:23;18.63;;;7.53;;
79533;SDS011;68982;52.160;6.736;2024-01-11T13:16:49;19.17;;;7.72;;
79533;SDS011;68982;52.160;6.736;2024-01-11T13:19:14;17.38;;;7.25;;
79533;SDS011;68982;52.160;6.736;2024-01-11T13:21:40;19.98;;;8.38;;
79533;SDS011;68982;52.160;6.736;2024-01-11T13:24:06;20.92;;;8.15;;
79533;SDS011;68982;52.160;6.736;2024-01-11T13:26:32;24.00;;;8.13;;
79533;SDS011;68982;52.160;6.736;2024-01-11T13:28:58;20.02;;;7.22;;
79533;SDS011;68982;52.160;6.736;2024-01-11T13:31:23;21.67;;;7.70;;
79533;SDS011;68982;52.160;6.736;2024-01-11T13:33:49;19.27;;;7.40;;
79533;SDS011;68982;52.160;6.736;2024-01-11T13:36:14;20.17;;;7.73;;
79533;SDS011;68982;52.160;6.736;2024-01-11T13:38:40;19.38;;;7.88;;
79533;SDS011;68982;52.160;6.736;2024-01-11T13:41:06;20.65;;;7.28;;
79533;SDS011;68982;52.160;6.736;2024-01-11T13:43:33;20.38;;;7.00;;
79533;SDS011;68982;52.160;6.736;2024-01-11T13:45:59;19.40;;;7.30;;
79533;SDS011;68982;52.160;6.736;2024-01-11T13:48:25;23.30;;;8.55;;
79533;SDS011;68982;52.160;6.736;2024-01-11T13:50:50;19.30;;;8.67;;
79533;SDS011;68982;52.160;6.736;2024-01-11T13:53:16;27.25;;;11.35;;
79533;SDS011;68982;52.160;6.736;2024-01-11T13:55:41;24.63;;;10.65;;
79533;SDS011;68982;52.160;6.736;2024-01-11T13:58:06;24.73;;;11.60;;
79533;SDS011;68982;52.160;6.736;2024-01-11T14:00:32;28.08;;;13.98;;
79533;SDS011;68982;52.160;6.736;2024-01-11T14:02:58;30.13;;;12.43;;
79533;SDS011;68982;52.160;6.736;2024-01-11T14:05:23;25.10;;;11.25;;
79533;SDS011;68982;52.160;6.736;2024-01-11T14:07:48;22.90;;;9.77;;
79533;SDS011;68982;52.160;6.736;2024-01-11T14:10:19;25.25;;;10.02;;
79533;SDS011;68982;52.160;6.736;2024-01-11T14:12:44;21.33;;;8.48;;
79533;SDS011;68982;52.160;6.736;2024-01-11T14:15:10;19.37;;;7.70;;
79533;SDS011;68982;52.160;6.736;2024-01-11T14:17:38;20.40;;;8.40;;
79533;SDS011;68982;52.160;6.736;2024-01-11T14:20:04;19.60;;;7.80;;
79533;SDS011;68982;52.160;6.736;2024-01-11T14:22:34;19.75;;;7.68;;
79533;SDS011;68982;52.160;6.736;2024-01-11T14:25:00;21.17;;;8.02;;
79533;SDS011;68982;52.160;6.736;2024-01-11T14:27:25;24.13;;;8.97;;
79533;SDS011;68982;52.160;6.736;2024-01-11T14:29:51;20.33;;;8.38;;